User avatar
Posts: 3217
Joined: Sun Apr 11, 2004 12:49 pm

Comair Flight Hit By Lightning BOS

Sat Dec 10, 2005 5:33 am

Word is that a Comair CRJ was hit by lightning this afternoon after departure from Logan BOS. Apparently it came back for a landing

That is the link to Channel 7's story on it. Not many details as of yet...

The weather here is doing a complete 180 from what it was doing this morning....

The latest BOS METAR is as follows:

KBOS 091954Z 32025G32KT 1/8SM R04R/0800V1000FT +TSSN FZFG VV002 M02/M02 A2956 RMK AO2 PK WND 32037/1932 TSB1856E29B50PLE01 PRESRR SLP011 OCNL LTGICCG ALQDS TS ALQDS P0007 T10171022 $

Obviously a lot of stuff going on at once!

Ill post more information as soon as I here it, or if anyone knows more please post here. Thanks!
I sell airplanes and airplane accessories
Posts: 1474
Joined: Sat Sep 03, 2005 9:39 am

RE: Comair Flight Hit By Lightning BOS

Sat Dec 10, 2005 5:34 am

I just posted a new thread about the weather here. It's absolutely terrible now for flying. Blizzard, high winds, some lightning...